sensor_id;sensor_type;location;lat;lon;timestamp;temperature;humidity
44894;DHT22;30625;52.206;21.030;2022-11-14T00:01:18;9.10;99.90
44894;DHT22;30625;52.206;21.030;2022-11-14T00:03:44;9.10;99.90
44894;DHT22;30625;52.206;21.030;2022-11-14T00:06:10;9.10;99.90
44894;DHT22;30625;52.206;21.030;2022-11-14T00:08:36;9.00;99.90
44894;DHT22;30625;52.206;21.030;2022-11-14T00:11:02;9.00;99.90
44894;DHT22;30625;52.206;21.030;2022-11-14T00:13:28;9.00;99.90
44894;DHT22;30625;52.206;21.030;2022-11-14T00:15:53;9.00;99.90
44894;DHT22;30625;52.206;21.030;2022-11-14T00:18:20;9.10;99.90
44894;DHT22;30625;52.206;21.030;2022-11-14T00:20:50;9.10;99.90
44894;DHT22;30625;52.206;21.030;2022-11-14T00:23:17;9.00;99.90
44894;DHT22;30625;52.206;21.030;2022-11-14T00:25:43;8.90;99.90
44894;DHT22;30625;52.206;21.030;2022-11-14T00:28:09;8.80;99.90
44894;DHT22;30625;52.206;21.030;2022-11-14T00:30:35;8.80;99.90
44894;DHT22;30625;52.206;21.030;2022-11-14T00:33:00;8.90;99.90
44894;DHT22;30625;52.206;21.030;2022-11-14T00:35:26;8.90;99.90
44894;DHT22;30625;52.206;21.030;2022-11-14T00:37:52;8.80;99.90
44894;DHT22;30625;52.206;21.030;2022-11-14T00:40:17;8.80;99.90
44894;DHT22;30625;52.206;21.030;2022-11-14T00:42:43;8.70;99.90
44894;DHT22;30625;52.206;21.030;2022-11-14T00:45:10;8.70;99.90
44894;DHT22;30625;52.206;21.030;2022-11-14T00:47:36;8.70;99.90
44894;DHT22;30625;52.206;21.030;2022-11-14T00:50:02;8.80;99.90
44894;DHT22;30625;52.206;21.030;2022-11-14T00:52:28;7.60;99.90
44894;DHT22;30625;52.206;21.030;2022-11-14T00:54:54;8.80;99.90
44894;DHT22;30625;52.206;21.030;2022-11-14T00:57:20;8.80;99.90
44894;DHT22;30625;52.206;21.030;2022-11-14T00:59:45;8.80;99.90
44894;DHT22;30625;52.206;21.030;2022-11-14T01:02:11;8.80;99.90
44894;DHT22;30625;52.206;21.030;2022-11-14T01:04:37;8.80;99.90
44894;DHT22;30625;52.206;21.030;2022-11-14T01:07:02;8.80;99.90
44894;DHT22;30625;52.206;21.030;2022-11-14T01:09:28;8.80;99.90
44894;DHT22;30625;52.206;21.030;2022-11-14T01:11:54;8.80;99.90
44894;DHT22;30625;52.206;21.030;2022-11-14T01:14:19;8.80;99.90
44894;DHT22;30625;52.206;21.030;2022-11-14T01:16:45;8.80;99.90
44894;DHT22;30625;52.206;21.030;2022-11-14T01:19:11;8.80;99.90
44894;DHT22;30625;52.206;21.030;2022-11-14T01:21:36;8.80;99.90
44894;DHT22;30625;52.206;21.030;2022-11-14T01:24:02;8.80;99.90
44894;DHT22;30625;52.206;21.030;2022-11-14T01:26:28;8.90;99.90
44894;DHT22;30625;52.206;21.030;2022-11-14T01:28:54;8.90;99.90
44894;DHT22;30625;52.206;21.030;2022-11-14T01:31:22;8.90;99.90
44894;DHT22;30625;52.206;21.030;2022-11-14T01:33:50;8.80;99.90
44894;DHT22;30625;52.206;21.030;2022-11-14T01:36:16;8.70;99.90
44894;DHT22;30625;52.206;21.030;2022-11-14T01:38:42;8.70;99.90
44894;DHT22;30625;52.206;21.030;2022-11-14T01:41:09;8.70;99.90
44894;DHT22;30625;52.206;21.030;2022-11-14T01:43:38;8.70;99.90
44894;DHT22;30625;52.206;21.030;2022-11-14T01:46:27;8.70;99.90
44894;DHT22;30625;52.206;21.030;2022-11-14T01:51:32;8.70;99.90
44894;DHT22;30625;52.206;21.030;2022-11-14T01:54:02;8.80;99.90
44894;DHT22;30625;52.206;21.030;2022-11-14T01:56:35;8.80;99.90
44894;DHT22;30625;52.206;21.030;2022-11-14T01:59:11;8.90;99.90
44894;DHT22;30625;52.206;21.030;2022-11-14T02:01:49;8.80;99.90
44894;DHT22;30625;52.206;21.030;2022-11-14T02:04:27;8.80;99.90
44894;DHT22;30625;52.206;21.030;2022-11-14T02:06:57;8.80;99.90
44894;DHT22;30625;52.206;21.030;2022-11-14T02:09:25;8.80;99.90
44894;DHT22;30625;52.206;21.030;2022-11-14T02:11:52;8.80;99.90
44894;DHT22;30625;52.206;21.030;2022-11-14T02:14:19;8.80;99.90
44894;DHT22;30625;52.206;21.030;2022-11-14T02:16:45;8.80;99.90
44894;DHT22;30625;52.206;21.030;2022-11-14T02:19:13;8.80;99.90
44894;DHT22;30625;52.206;21.030;2022-11-14T02:21:39;8.80;99.90
44894;DHT22;30625;52.206;21.030;2022-11-14T02:24:09;8.70;99.90
44894;DHT22;30625;52.206;21.030;2022-11-14T02:26:35;8.60;99.90
44894;DHT22;30625;52.206;21.030;2022-11-14T02:29:00;8.50;99.90
44894;DHT22;30625;52.206;21.030;2022-11-14T02:31:26;8.60;99.90
44894;DHT22;30625;52.206;21.030;2022-11-14T02:33:52;8.60;99.90
44894;DHT22;30625;52.206;21.030;2022-11-14T02:36:17;8.50;99.90
44894;DHT22;30625;52.206;21.030;2022-11-14T02:38:43;8.50;99.90
44894;DHT22;30625;52.206;21.030;2022-11-14T02:41:09;8.50;99.90
44894;DHT22;30625;52.206;21.030;2022-11-14T02:43:34;8.50;99.90
44894;DHT22;30625;52.206;21.030;2022-11-14T02:46:01;8.20;99.90
44894;DHT22;30625;52.206;21.030;2022-11-14T02:48:26;8.50;99.90
44894;DHT22;30625;52.206;21.030;2022-11-14T02:50:52;8.50;99.90
44894;DHT22;30625;52.206;21.030;2022-11-14T02:53:18;8.40;99.90
44894;DHT22;30625;52.206;21.030;2022-11-14T02:55:43;8.40;99.90
44894;DHT22;30625;52.206;21.030;2022-11-14T02:58:09;8.40;99.90
44894;DHT22;30625;52.206;21.030;2022-11-14T03:00:35;8.40;99.90
44894;DHT22;30625;52.206;21.030;2022-11-14T03:03:00;8.40;99.90
44894;DHT22;30625;52.206;21.030;2022-11-14T03:05:26;8.50;99.90
44894;DHT22;30625;52.206;21.030;2022-11-14T03:07:53;8.50;99.90
44894;DHT22;30625;52.206;21.030;2022-11-14T03:10:20;8.40;99.90
44894;DHT22;30625;52.206;21.030;2022-11-14T03:12:45;8.50;99.90
44894;DHT22;30625;52.206;21.030;2022-11-14T03:15:11;8.50;99.90
44894;DHT22;30625;52.206;21.030;2022-11-14T03:17:37;8.50;99.90
44894;DHT22;30625;52.206;21.030;2022-11-14T03:20:03;8.40;99.90
44894;DHT22;30625;52.206;21.030;2022-11-14T03:22:29;8.40;99.90
44894;DHT22;30625;52.206;21.030;2022-11-14T03:24:55;8.40;99.90
44894;DHT22;30625;52.206;21.030;2022-11-14T03:27:21;8.50;99.90
44894;DHT22;30625;52.206;21.030;2022-11-14T03:29:47;8.40;99.90
44894;DHT22;30625;52.206;21.030;2022-11-14T03:32:13;8.40;99.90
44894;DHT22;30625;52.206;21.030;2022-11-14T03:34:39;8.40;99.90
44894;DHT22;30625;52.206;21.030;2022-11-14T03:37:05;8.40;99.90
44894;DHT22;30625;52.206;21.030;2022-11-14T03:39:30;8.40;99.90
44894;DHT22;30625;52.206;21.030;2022-11-14T03:41:56;8.40;99.90
44894;DHT22;30625;52.206;21.030;2022-11-14T03:44:22;8.50;99.90
44894;DHT22;30625;52.206;21.030;2022-11-14T03:46:47;8.50;99.90
44894;DHT22;30625;52.206;21.030;2022-11-14T03:49:13;8.50;99.90
44894;DHT22;30625;52.206;21.030;2022-11-14T03:51:39;8.50;99.90
44894;DHT22;30625;52.206;21.030;2022-11-14T03:54:04;8.50;99.90
44894;DHT22;30625;52.206;21.030;2022-11-14T03:56:30;8.50;99.90
44894;DHT22;30625;52.206;21.030;2022-11-14T03:58:56;8.50;99.90
44894;DHT22;30625;52.206;21.030;2022-11-14T04:01:22;8.50;99.90
44894;DHT22;30625;52.206;21.030;2022-11-14T04:03:47;8.60;99.90
44894;DHT22;30625;52.206;21.030;2022-11-14T04:06:13;8.60;99.90
44894;DHT22;30625;52.206;21.030;2022-11-14T04:08:39;8.60;99.90
44894;DHT22;30625;52.206;21.030;2022-11-14T04:11:06;8.60;99.90
44894;DHT22;30625;52.206;21.030;2022-11-14T04:13:31;8.50;99.90
44894;DHT22;30625;52.206;21.030;2022-11-14T04:15:58;8.40;99.90
44894;DHT22;30625;52.206;21.030;2022-11-14T04:18:24;8.40;99.90
44894;DHT22;30625;52.206;21.030;2022-11-14T04:20:50;8.40;99.90
44894;DHT22;30625;52.206;21.030;2022-11-14T04:23:16;8.40;99.90
44894;DHT22;30625;52.206;21.030;2022-11-14T04:25:45;8.30;99.90
44894;DHT22;30625;52.206;21.030;2022-11-14T04:28:12;8.30;99.90
44894;DHT22;30625;52.206;21.030;2022-11-14T04:30:38;8.40;99.90
44894;DHT22;30625;52.206;21.030;2022-11-14T04:33:04;8.40;99.90
44894;DHT22;30625;52.206;21.030;2022-11-14T04:35:30;8.40;99.90
44894;DHT22;30625;52.206;21.030;2022-11-14T04:37:55;8.50;99.90
44894;DHT22;30625;52.206;21.030;2022-11-14T04:40:21;8.50;99.90
44894;DHT22;30625;52.206;21.030;2022-11-14T04:42:47;8.40;99.90
44894;DHT22;30625;52.206;21.030;2022-11-14T04:45:13;8.30;99.90
44894;DHT22;30625;52.206;21.030;2022-11-14T04:47:41;8.30;99.90
44894;DHT22;30625;52.206;21.030;2022-11-14T04:50:07;8.30;99.90
44894;DHT22;30625;52.206;21.030;2022-11-14T04:52:33;8.30;99.90
44894;DHT22;30625;52.206;21.030;2022-11-14T04:54:58;8.30;99.90
44894;DHT22;30625;52.206;21.030;2022-11-14T04:57:24;8.30;99.90
44894;DHT22;30625;52.206;21.030;2022-11-14T04:59:50;8.40;99.90
44894;DHT22;30625;52.206;21.030;2022-11-14T05:02:16;8.40;99.90
44894;DHT22;30625;52.206;21.030;2022-11-14T05:04:42;8.40;99.90
44894;DHT22;30625;52.206;21.030;2022-11-14T05:07:09;8.40;99.90
44894;DHT22;30625;52.206;21.030;2022-11-14T05:09:34;8.50;99.90
44894;DHT22;30625;52.206;21.030;2022-11-14T05:12:02;8.40;99.90
44894;DHT22;30625;52.206;21.030;2022-11-14T05:14:28;8.40;99.90
44894;DHT22;30625;52.206;21.030;2022-11-14T05:16:53;8.40;99.90
44894;DHT22;30625;52.206;21.030;2022-11-14T05:19:19;8.40;99.90
44894;DHT22;30625;52.206;21.030;2022-11-14T05:21:45;8.40;99.90
44894;DHT22;30625;52.206;21.030;2022-11-14T05:24:10;8.40;99.90
44894;DHT22;30625;52.206;21.030;2022-11-14T05:26:36;8.40;99.90
44894;DHT22;30625;52.206;21.030;2022-11-14T05:29:02;8.40;99.90
44894;DHT22;30625;52.206;21.030;2022-11-14T05:31:28;8.40;99.90
44894;DHT22;30625;52.206;21.030;2022-11-14T05:33:53;8.40;99.90
44894;DHT22;30625;52.206;21.030;2022-11-14T05:36:19;8.60;99.90
44894;DHT22;30625;52.206;21.030;2022-11-14T05:38:45;8.40;99.90
44894;DHT22;30625;52.206;21.030;2022-11-14T05:41:13;8.30;99.90
44894;DHT22;30625;52.206;21.030;2022-11-14T05:43:39;8.40;99.90
44894;DHT22;30625;52.206;21.030;2022-11-14T05:46:08;8.30;99.90
44894;DHT22;30625;52.206;21.030;2022-11-14T05:48:34;8.30;99.90
44894;DHT22;30625;52.206;21.030;2022-11-14T05:51:02;8.30;99.90
44894;DHT22;30625;52.206;21.030;2022-11-14T05:53:29;8.40;99.90
44894;DHT22;30625;52.206;21.030;2022-11-14T05:56:02;8.40;99.90
44894;DHT22;30625;52.206;21.030;2022-11-14T05:58:30;8.40;99.90
44894;DHT22;30625;52.206;21.030;2022-11-14T06:01:06;8.40;99.90
44894;DHT22;30625;52.206;21.030;2022-11-14T06:03:37;8.40;99.90
44894;DHT22;30625;52.206;21.030;2022-11-14T06:06:05;8.40;99.90
44894;DHT22;30625;52.206;21.030;2022-11-14T06:08:32;8.40;99.90
44894;DHT22;30625;52.206;21.030;2022-11-14T06:11:18;8.30;99.90
44894;DHT22;30625;52.206;21.030;2022-11-14T06:13:45;8.30;99.90
44894;DHT22;30625;52.206;21.030;2022-11-14T06:16:12;8.30;99.90
44894;DHT22;30625;52.206;21.030;2022-11-14T06:18:39;8.30;99.90
44894;DHT22;30625;52.206;21.030;2022-11-14T06:21:16;8.40;99.90
44894;DHT22;30625;52.206;21.030;2022-11-14T06:23:42;8.40;99.90
44894;DHT22;30625;52.206;21.030;2022-11-14T06:28:47;8.30;99.90
44894;DHT22;30625;52.206;21.030;2022-11-14T06:31:14;8.30;99.90
44894;DHT22;30625;52.206;21.030;2022-11-14T06:33:39;8.40;99.90
44894;DHT22;30625;52.206;21.030;2022-11-14T06:36:06;8.40;99.90
44894;DHT22;30625;52.206;21.030;2022-11-14T06:38:34;8.40;99.90
44894;DHT22;30625;52.206;21.030;2022-11-14T06:41:11;8.40;99.90
44894;DHT22;30625;52.206;21.030;2022-11-14T06:43:41;8.40;99.90
44894;DHT22;30625;52.206;21.030;2022-11-14T06:46:09;8.30;99.90
44894;DHT22;30625;52.206;21.030;2022-11-14T06:48:35;8.30;99.90
44894;DHT22;30625;52.206;21.030;2022-11-14T06:51:02;8.40;99.90
44894;DHT22;30625;52.206;21.030;2022-11-14T06:53:30;8.40;99.90
44894;DHT22;30625;52.206;21.030;2022-11-14T06:56:08;8.40;99.90
44894;DHT22;30625;52.206;21.030;2022-11-14T06:58:53;8.40;99.90
44894;DHT22;30625;52.206;21.030;2022-11-14T07:01:21;8.40;99.90
44894;DHT22;30625;52.206;21.030;2022-11-14T07:03:47;8.40;99.90
44894;DHT22;30625;52.206;21.030;2022-11-14T07:06:16;8.40;99.90
44894;DHT22;30625;52.206;21.030;2022-11-14T07:08:42;8.30;99.90
44894;DHT22;30625;52.206;21.030;2022-11-14T07:11:10;8.30;99.90
44894;DHT22;30625;52.206;21.030;2022-11-14T07:13:37;8.30;99.90
44894;DHT22;30625;52.206;21.030;2022-11-14T07:16:03;8.30;99.90
44894;DHT22;30625;52.206;21.030;2022-11-14T07:18:30;8.40;99.90
44894;DHT22;30625;52.206;21.030;2022-11-14T07:21:02;8.40;99.90
44894;DHT22;30625;52.206;21.030;2022-11-14T07:23:29;8.40;99.90
44894;DHT22;30625;52.206;21.030;2022-11-14T07:25:55;8.40;99.90
44894;DHT22;30625;52.206;21.030;2022-11-14T07:28:24;8.40;99.90
44894;DHT22;30625;52.206;21.030;2022-11-14T07:30:50;8.30;99.90
44894;DHT22;30625;52.206;21.030;2022-11-14T07:33:15;8.30;99.90
44894;DHT22;30625;52.206;21.030;2022-11-14T07:35:41;8.30;99.90
44894;DHT22;30625;52.206;21.030;2022-11-14T07:38:07;8.20;99.90
44894;DHT22;30625;52.206;21.030;2022-11-14T07:40:32;9.90;99.90
44894;DHT22;30625;52.206;21.030;2022-11-14T07:42:59;8.30;99.90
44894;DHT22;30625;52.206;21.030;2022-11-14T07:45:26;8.30;99.90
44894;DHT22;30625;52.206;21.030;2022-11-14T07:48:00;8.30;99.90
44894;DHT22;30625;52.206;21.030;2022-11-14T07:50:28;8.40;99.90
44894;DHT22;30625;52.206;21.030;2022-11-14T07:52:55;8.40;99.90
44894;DHT22;30625;52.206;21.030;2022-11-14T07:55:22;8.30;99.90
44894;DHT22;30625;52.206;21.030;2022-11-14T07:57:51;8.30;99.90
44894;DHT22;30625;52.206;21.030;2022-11-14T08:00:17;8.40;99.90
44894;DHT22;30625;52.206;21.030;2022-11-14T08:02:45;8.40;99.90
44894;DHT22;30625;52.206;21.030;2022-11-14T08:05:10;8.30;99.90
44894;DHT22;30625;52.206;21.030;2022-11-14T08:07:36;8.40;99.90
44894;DHT22;30625;52.206;21.030;2022-11-14T08:10:02;8.40;99.90
44894;DHT22;30625;52.206;21.030;2022-11-14T08:12:28;8.40;99.90
44894;DHT22;30625;52.206;21.030;2022-11-14T08:27:48;8.40;99.90
44894;DHT22;30625;52.206;21.030;2022-11-14T08:30:14;8.50;99.90
44894;DHT22;30625;52.206;21.030;2022-11-14T08:32:40;8.30;99.90
44894;DHT22;30625;52.206;21.030;2022-11-14T08:35:06;8.30;99.90
44894;DHT22;30625;52.206;21.030;2022-11-14T08:37:31;8.30;99.90
44894;DHT22;30625;52.206;21.030;2022-11-14T08:39:57;8.30;99.90
44894;DHT22;30625;52.206;21.030;2022-11-14T08:42:23;8.20;99.90
44894;DHT22;30625;52.206;21.030;2022-11-14T08:44:48;8.20;99.90
44894;DHT22;30625;52.206;21.030;2022-11-14T08:47:14;8.20;99.90
44894;DHT22;30625;52.206;21.030;2022-11-14T08:49:40;8.30;99.90
44894;DHT22;30625;52.206;21.030;2022-11-14T08:52:05;8.30;99.90
44894;DHT22;30625;52.206;21.030;2022-11-14T08:54:31;8.30;99.90
44894;DHT22;30625;52.206;21.030;2022-11-14T08:56:57;8.40;99.90
44894;DHT22;30625;52.206;21.030;2022-11-14T08:59:22;8.50;99.90
44894;DHT22;30625;52.206;21.030;2022-11-14T09:01:48;8.40;99.90
44894;DHT22;30625;52.206;21.030;2022-11-14T09:04:14;8.40;99.90
44894;DHT22;30625;52.206;21.030;2022-11-14T09:06:40;8.50;99.90
44894;DHT22;30625;52.206;21.030;2022-11-14T09:09:05;8.50;99.90
44894;DHT22;30625;52.206;21.030;2022-11-14T09:11:31;8.50;99.90
44894;DHT22;30625;52.206;21.030;2022-11-14T09:13:57;8.50;99.90
44894;DHT22;30625;52.206;21.030;2022-11-14T09:16:23;8.50;99.90
44894;DHT22;30625;52.206;21.030;2022-11-14T09:21:24;8.40;99.90
44894;DHT22;30625;52.206;21.030;2022-11-14T09:23:50;8.40;99.90
44894;DHT22;30625;52.206;21.030;2022-11-14T09:26:16;8.50;99.90
44894;DHT22;30625;52.206;21.030;2022-11-14T09:31:18;8.50;99.90
44894;DHT22;30625;52.206;21.030;2022-11-14T09:33:44;8.50;99.90
44894;DHT22;30625;52.206;21.030;2022-11-14T09:38:45;8.60;99.90
44894;DHT22;30625;52.206;21.030;2022-11-14T09:41:23;8.50;99.90
44894;DHT22;30625;52.206;21.030;2022-11-14T09:46:42;8.30;99.90
44894;DHT22;30625;52.206;21.030;2022-11-14T09:49:24;8.50;99.90
44894;DHT22;30625;52.206;21.030;2022-11-14T09:51:57;8.40;99.90
44894;DHT22;30625;52.206;21.030;2022-11-14T09:54:37;8.50;99.90
44894;DHT22;30625;52.206;21.030;2022-11-14T09:57:15;8.50;99.90
44894;DHT22;30625;52.206;21.030;2022-11-14T09:59:42;8.70;99.90
44894;DHT22;30625;52.206;21.030;2022-11-14T10:10:03;8.70;99.90
44894;DHT22;30625;52.206;21.030;2022-11-14T10:12:52;8.10;99.90
44894;DHT22;30625;52.206;21.030;2022-11-14T10:15:29;7.50;99.90
44894;DHT22;30625;52.206;21.030;2022-11-14T10:42:22;8.40;99.90
44894;DHT22;30625;52.206;21.030;2022-11-14T10:45:02;7.70;99.90
44894;DHT22;30625;52.206;21.030;2022-11-14T10:47:42;8.50;99.90
44894;DHT22;30625;52.206;21.030;2022-11-14T10:50:43;8.50;99.90
44894;DHT22;30625;52.206;21.030;2022-11-14T10:53:22;8.40;99.90
44894;DHT22;30625;52.206;21.030;2022-11-14T10:55:50;8.30;99.90
44894;DHT22;30625;52.206;21.030;2022-11-14T10:58:17;8.50;99.90
44894;DHT22;30625;52.206;21.030;2022-11-14T11:00:43;8.30;99.90
44894;DHT22;30625;52.206;21.030;2022-11-14T11:03:12;8.30;99.90
44894;DHT22;30625;52.206;21.030;2022-11-14T11:05:52;8.50;99.90
44894;DHT22;30625;52.206;21.030;2022-11-14T11:08:24;7.60;99.90
44894;DHT22;30625;52.206;21.030;2022-11-14T11:11:13;8.60;99.90
44894;DHT22;30625;52.206;21.030;2022-11-14T11:13:56;8.60;99.90
44894;DHT22;30625;52.206;21.030;2022-11-14T11:16:24;9.90;99.90
44894;DHT22;30625;52.206;21.030;2022-11-14T11:18:51;7.00;99.90
44894;DHT22;30625;52.206;21.030;2022-11-14T11:21:19;7.50;99.90
44894;DHT22;30625;52.206;21.030;2022-11-14T11:23:56;7.50;99.90
44894;DHT22;30625;52.206;21.030;2022-11-14T11:26:30;8.40;99.90
44894;DHT22;30625;52.206;21.030;2022-11-14T11:29:22;8.30;99.90
44894;DHT22;30625;52.206;21.030;2022-11-14T11:34:32;8.50;99.90
44894;DHT22;30625;52.206;21.030;2022-11-14T11:37:14;8.50;99.90
44894;DHT22;30625;52.206;21.030;2022-11-14T11:39:54;8.50;99.90
44894;DHT22;30625;52.206;21.030;2022-11-14T11:42:35;8.40;99.90
44894;DHT22;30625;52.206;21.030;2022-11-14T11:45:08;8.40;99.90
44894;DHT22;30625;52.206;21.030;2022-11-14T11:47:38;8.30;99.90
44894;DHT22;30625;52.206;21.030;2022-11-14T11:50:14;8.40;99.90
44894;DHT22;30625;52.206;21.030;2022-11-14T11:55:28;8.50;99.90
44894;DHT22;30625;52.206;21.030;2022-11-14T11:58:09;8.60;99.90
44894;DHT22;30625;52.206;21.030;2022-11-14T12:00:37;8.60;99.90
44894;DHT22;30625;52.206;21.030;2022-11-14T12:03:09;8.20;99.90
44894;DHT22;30625;52.206;21.030;2022-11-14T12:05:39;8.70;99.90
44894;DHT22;30625;52.206;21.030;2022-11-14T12:08:54;8.40;99.90
44894;DHT22;30625;52.206;21.030;2022-11-14T12:11:18;8.60;99.90
44894;DHT22;30625;52.206;21.030;2022-11-14T12:13:57;8.50;99.90
44894;DHT22;30625;52.206;21.030;2022-11-14T12:30:39;8.50;99.90
44894;DHT22;30625;52.206;21.030;2022-11-14T12:33:14;9.40;99.90
44894;DHT22;30625;52.206;21.030;2022-11-14T12:36:08;8.30;99.90
44894;DHT22;30625;52.206;21.030;2022-11-14T12:38:44;8.20;99.90
44894;DHT22;30625;52.206;21.030;2022-11-14T12:41:11;8.40;99.90
44894;DHT22;30625;52.206;21.030;2022-11-14T12:43:39;10.00;99.90
44894;DHT22;30625;52.206;21.030;2022-11-14T12:46:11;8.20;99.90
44894;DHT22;30625;52.206;21.030;2022-11-14T12:48:41;8.20;99.90
44894;DHT22;30625;52.206;21.030;2022-11-14T12:53:48;8.20;99.90
44894;DHT22;30625;52.206;21.030;2022-11-14T13:01:33;8.10;99.90
44894;DHT22;30625;52.206;21.030;2022-11-14T13:04:37;8.00;99.90
44894;DHT22;30625;52.206;21.030;2022-11-14T13:15:50;8.00;99.90
44894;DHT22;30625;52.206;21.030;2022-11-14T13:18:34;8.00;99.90
44894;DHT22;30625;52.206;21.030;2022-11-14T13:21:27;8.00;99.90
44894;DHT22;30625;52.206;21.030;2022-11-14T13:24:16;8.00;99.90
44894;DHT22;30625;52.206;21.030;2022-11-14T13:26:47;8.00;99.90
44894;DHT22;30625;52.206;21.030;2022-11-14T13:32:00;7.90;99.90
44894;DHT22;30625;52.206;21.030;2022-11-14T13:45:57;7.90;99.90
44894;DHT22;30625;52.206;21.030;2022-11-14T13:51:11;8.00;99.90
44894;DHT22;30625;52.206;21.030;2022-11-14T13:53:40;8.00;99.90
44894;DHT22;30625;52.206;21.030;2022-11-14T13:56:09;8.10;99.90
44894;DHT22;30625;52.206;21.030;2022-11-14T14:04:55;8.00;99.90
44894;DHT22;30625;52.206;21.030;2022-11-14T14:08:02;7.90;99.90
44894;DHT22;30625;52.206;21.030;2022-11-14T14:10:52;7.90;99.90
44894;DHT22;30625;52.206;21.030;2022-11-14T14:16:35;7.90;99.90
44894;DHT22;30625;52.206;21.030;2022-11-14T14:21:54;7.90;99.90
44894;DHT22;30625;52.206;21.030;2022-11-14T14:32:23;8.00;99.90
44894;DHT22;30625;52.206;21.030;2022-11-14T14:34:49;7.90;99.90
44894;DHT22;30625;52.206;21.030;2022-11-14T14:37:26;7.90;99.90
44894;DHT22;30625;52.206;21.030;2022-11-14T14:40:24;7.90;99.90
44894;DHT22;30625;52.206;21.030;2022-11-14T14:42:51;8.00;99.90
44894;DHT22;30625;52.206;21.030;2022-11-14T14:45:19;8.00;99.90
44894;DHT22;30625;52.206;21.030;2022-11-14T14:47:50;7.90;99.90
44894;DHT22;30625;52.206;21.030;2022-11-14T14:50:26;7.90;99.90
44894;DHT22;30625;52.206;21.030;2022-11-14T14:53:00;7.90;99.90
44894;DHT22;30625;52.206;21.030;2022-11-14T14:55:28;7.90;99.90
44894;DHT22;30625;52.206;21.030;2022-11-14T14:57:54;7.90;99.90
44894;DHT22;30625;52.206;21.030;2022-11-14T15:00:24;7.90;99.90
44894;DHT22;30625;52.206;21.030;2022-11-14T15:02:53;7.90;99.90
44894;DHT22;30625;52.206;21.030;2022-11-14T15:05:28;7.90;99.90
44894;DHT22;30625;52.206;21.030;2022-11-14T15:07:56;7.90;99.90
44894;DHT22;30625;52.206;21.030;2022-11-14T15:12:58;7.90;99.90
44894;DHT22;30625;52.206;21.030;2022-11-14T15:15:24;7.80;99.90
44894;DHT22;30625;52.206;21.030;2022-11-14T15:17:52;7.80;99.90
44894;DHT22;30625;52.206;21.030;2022-11-14T15:20:28;7.80;99.90
44894;DHT22;30625;52.206;21.030;2022-11-14T15:25:36;7.80;99.90
44894;DHT22;30625;52.206;21.030;2022-11-14T15:28:02;7.60;99.90
44894;DHT22;30625;52.206;21.030;2022-11-14T15:30:32;7.60;99.90
44894;DHT22;30625;52.206;21.030;2022-11-14T15:33:03;7.60;99.90
44894;DHT22;30625;52.206;21.030;2022-11-14T15:35:32;7.70;99.90
44894;DHT22;30625;52.206;21.030;2022-11-14T15:40:39;7.60;99.90
44894;DHT22;30625;52.206;21.030;2022-11-14T15:43:49;7.50;99.90
44894;DHT22;30625;52.206;21.030;2022-11-14T15:49:14;7.60;99.90
44894;DHT22;30625;52.206;21.030;2022-11-14T15:54:31;7.60;99.90
44894;DHT22;30625;52.206;21.030;2022-11-14T15:57:08;7.60;99.90
44894;DHT22;30625;52.206;21.030;2022-11-14T15:59:36;7.50;99.90
44894;DHT22;30625;52.206;21.030;2022-11-14T16:02:40;7.60;99.90
44894;DHT22;30625;52.206;21.030;2022-11-14T16:04:59;7.60;99.90
44894;DHT22;30625;52.206;21.030;2022-11-14T16:07:25;7.60;99.90
44894;DHT22;30625;52.206;21.030;2022-11-14T16:09:52;7.50;99.90
44894;DHT22;30625;52.206;21.030;2022-11-14T16:12:18;7.60;99.90
44894;DHT22;30625;52.206;21.030;2022-11-14T16:14:44;7.60;99.90
44894;DHT22;30625;52.206;21.030;2022-11-14T16:17:16;7.60;99.90
44894;DHT22;30625;52.206;21.030;2022-11-14T16:19:42;7.60;99.90
44894;DHT22;30625;52.206;21.030;2022-11-14T16:22:14;7.60;99.90
44894;DHT22;30625;52.206;21.030;2022-11-14T16:24:41;7.60;99.90
44894;DHT22;30625;52.206;21.030;2022-11-14T16:27:07;7.60;99.90
44894;DHT22;30625;52.206;21.030;2022-11-14T16:29:32;6.60;99.90
44894;DHT22;30625;52.206;21.030;2022-11-14T16:31:58;7.50;99.90
44894;DHT22;30625;52.206;21.030;2022-11-14T16:34:25;7.60;99.90
44894;DHT22;30625;52.206;21.030;2022-11-14T16:36:59;7.60;99.90
44894;DHT22;30625;52.206;21.030;2022-11-14T16:39:25;7.50;99.90
44894;DHT22;30625;52.206;21.030;2022-11-14T16:41:51;7.60;99.90
44894;DHT22;30625;52.206;21.030;2022-11-14T16:44:17;7.50;99.90
44894;DHT22;30625;52.206;21.030;2022-11-14T16:46:43;7.50;99.90
44894;DHT22;30625;52.206;21.030;2022-11-14T16:49:14;7.50;99.90
44894;DHT22;30625;52.206;21.030;2022-11-14T16:51:41;7.60;99.90
44894;DHT22;30625;52.206;21.030;2022-11-14T16:54:10;7.40;99.90
44894;DHT22;30625;52.206;21.030;2022-11-14T16:59:12;7.60;99.90
44894;DHT22;30625;52.206;21.030;2022-11-14T17:01:38;7.50;99.90
44894;DHT22;30625;52.206;21.030;2022-11-14T17:04:04;7.50;99.90
44894;DHT22;30625;52.206;21.030;2022-11-14T17:06:30;7.50;99.90
44894;DHT22;30625;52.206;21.030;2022-11-14T17:08:57;7.50;99.90
44894;DHT22;30625;52.206;21.030;2022-11-14T17:11:24;7.50;99.90
44894;DHT22;30625;52.206;21.030;2022-11-14T17:13:50;7.60;99.90
44894;DHT22;30625;52.206;21.030;2022-11-14T17:16:16;7.60;99.90
44894;DHT22;30625;52.206;21.030;2022-11-14T17:18:42;7.60;99.90
44894;DHT22;30625;52.206;21.030;2022-11-14T17:21:10;7.60;99.90
44894;DHT22;30625;52.206;21.030;2022-11-14T17:23:37;7.40;99.90
44894;DHT22;30625;52.206;21.030;2022-11-14T17:26:04;7.50;99.90
44894;DHT22;30625;52.206;21.030;2022-11-14T17:28:30;7.50;99.90
44894;DHT22;30625;52.206;21.030;2022-11-14T17:30:57;7.50;99.90
44894;DHT22;30625;52.206;21.030;2022-11-14T17:33:23;7.50;99.90
44894;DHT22;30625;52.206;21.030;2022-11-14T17:35:49;7.50;99.90
44894;DHT22;30625;52.206;21.030;2022-11-14T17:38:14;7.50;99.90
44894;DHT22;30625;52.206;21.030;2022-11-14T17:40:40;7.50;99.90
44894;DHT22;30625;52.206;21.030;2022-11-14T17:43:06;7.70;99.90
44894;DHT22;30625;52.206;21.030;2022-11-14T17:45:32;7.50;99.90
44894;DHT22;30625;52.206;21.030;2022-11-14T17:47:57;7.50;99.90
44894;DHT22;30625;52.206;21.030;2022-11-14T17:50:23;7.50;99.90
44894;DHT22;30625;52.206;21.030;2022-11-14T17:52:49;7.50;99.90
44894;DHT22;30625;52.206;21.030;2022-11-14T17:55:18;7.40;99.90
44894;DHT22;30625;52.206;21.030;2022-11-14T17:57:45;8.20;99.90
44894;DHT22;30625;52.206;21.030;2022-11-14T18:00:11;7.30;99.90
44894;DHT22;30625;52.206;21.030;2022-11-14T18:02:37;7.40;99.90
44894;DHT22;30625;52.206;21.030;2022-11-14T18:05:03;7.40;99.90
44894;DHT22;30625;52.206;21.030;2022-11-14T18:07:29;7.40;99.90
44894;DHT22;30625;52.206;21.030;2022-11-14T18:10:00;7.40;99.90
44894;DHT22;30625;52.206;21.030;2022-11-14T18:12:26;7.50;99.90